sensor_id;sensor_type;location;lat;lon;timestamp;P1;durP1;ratioP1;P2;durP2;ratioP2
42978;SDS011;28616;44.746;19.678;2022-12-07T00:00:55;227.60;;;78.13;;
42978;SDS011;28616;44.746;19.678;2022-12-07T00:03:29;258.15;;;87.47;;
42978;SDS011;28616;44.746;19.678;2022-12-07T00:05:57;224.45;;;73.57;;
42978;SDS011;28616;44.746;19.678;2022-12-07T00:08:23;538.88;;;181.93;;
42978;SDS011;28616;44.746;19.678;2022-12-07T00:10:49;237.18;;;69.35;;
42978;SDS011;28616;44.746;19.678;2022-12-07T00:13:15;230.63;;;65.93;;
42978;SDS011;28616;44.746;19.678;2022-12-07T00:15:40;239.68;;;71.78;;
42978;SDS011;28616;44.746;19.678;2022-12-07T00:18:06;237.23;;;72.93;;
42978;SDS011;28616;44.746;19.678;2022-12-07T00:20:32;218.77;;;70.63;;
42978;SDS011;28616;44.746;19.678;2022-12-07T00:22:58;257.35;;;72.63;;
42978;SDS011;28616;44.746;19.678;2022-12-07T00:25:24;249.93;;;74.30;;
42978;SDS011;28616;44.746;19.678;2022-12-07T00:27:52;260.63;;;77.28;;
42978;SDS011;28616;44.746;19.678;2022-12-07T00:30:20;257.33;;;75.00;;
42978;SDS011;28616;44.746;19.678;2022-12-07T00:32:47;271.27;;;76.32;;
42978;SDS011;28616;44.746;19.678;2022-12-07T00:35:12;289.38;;;85.97;;
42978;SDS011;28616;44.746;19.678;2022-12-07T00:37:39;283.63;;;83.40;;
42978;SDS011;28616;44.746;19.678;2022-12-07T00:40:05;261.80;;;73.57;;
42978;SDS011;28616;44.746;19.678;2022-12-07T00:42:31;239.38;;;71.10;;
42978;SDS011;28616;44.746;19.678;2022-12-07T00:44:57;237.05;;;69.30;;
42978;SDS011;28616;44.746;19.678;2022-12-07T00:47:23;231.82;;;64.05;;
42978;SDS011;28616;44.746;19.678;2022-12-07T00:49:49;256.20;;;78.43;;
42978;SDS011;28616;44.746;19.678;2022-12-07T00:52:14;222.25;;;61.53;;
42978;SDS011;28616;44.746;19.678;2022-12-07T00:54:40;259.35;;;74.47;;
42978;SDS011;28616;44.746;19.678;2022-12-07T00:57:06;292.45;;;82.57;;
42978;SDS011;28616;44.746;19.678;2022-12-07T00:59:32;267.45;;;68.85;;
42978;SDS011;28616;44.746;19.678;2022-12-07T01:01:57;254.20;;;64.10;;
42978;SDS011;28616;44.746;19.678;2022-12-07T01:04:23;278.77;;;74.47;;
42978;SDS011;28616;44.746;19.678;2022-12-07T01:06:49;283.02;;;66.28;;
42978;SDS011;28616;44.746;19.678;2022-12-07T01:09:15;270.13;;;62.53;;
42978;SDS011;28616;44.746;19.678;2022-12-07T01:11:40;261.35;;;64.05;;
42978;SDS011;28616;44.746;19.678;2022-12-07T01:14:06;287.80;;;64.15;;
42978;SDS011;28616;44.746;19.678;2022-12-07T01:16:33;284.23;;;64.72;;
42978;SDS011;28616;44.746;19.678;2022-12-07T01:18:59;262.92;;;61.03;;
42978;SDS011;28616;44.746;19.678;2022-12-07T01:21:27;249.88;;;62.83;;
42978;SDS011;28616;44.746;19.678;2022-12-07T01:23:56;244.20;;;59.28;;
42978;SDS011;28616;44.746;19.678;2022-12-07T01:26:23;236.70;;;56.55;;
42978;SDS011;28616;44.746;19.678;2022-12-07T01:28:50;218.60;;;56.08;;
42978;SDS011;28616;44.746;19.678;2022-12-07T01:31:17;224.05;;;55.72;;
42978;SDS011;28616;44.746;19.678;2022-12-07T01:33:47;222.82;;;55.00;;
42978;SDS011;28616;44.746;19.678;2022-12-07T01:36:15;198.73;;;48.33;;
42978;SDS011;28616;44.746;19.678;2022-12-07T01:41:13;182.95;;;46.95;;
42978;SDS011;28616;44.746;19.678;2022-12-07T01:47:01;182.55;;;45.72;;
42978;SDS011;28616;44.746;19.678;2022-12-07T01:49:39;169.70;;;44.67;;
42978;SDS011;28616;44.746;19.678;2022-12-07T01:52:13;159.43;;;41.38;;
42978;SDS011;28616;44.746;19.678;2022-12-07T01:54:41;162.95;;;42.20;;
42978;SDS011;28616;44.746;19.678;2022-12-07T01:57:09;162.75;;;41.97;;
42978;SDS011;28616;44.746;19.678;2022-12-07T01:59:35;146.75;;;38.80;;
42978;SDS011;28616;44.746;19.678;2022-12-07T02:02:03;141.85;;;36.40;;
42978;SDS011;28616;44.746;19.678;2022-12-07T02:04:32;143.82;;;35.30;;
42978;SDS011;28616;44.746;19.678;2022-12-07T02:07:00;141.63;;;37.25;;
42978;SDS011;28616;44.746;19.678;2022-12-07T02:09:27;139.65;;;39.08;;
42978;SDS011;28616;44.746;19.678;2022-12-07T02:11:53;143.60;;;41.58;;
42978;SDS011;28616;44.746;19.678;2022-12-07T02:14:19;120.53;;;34.90;;
42978;SDS011;28616;44.746;19.678;2022-12-07T02:25:38;133.00;;;35.20;;
42978;SDS011;28616;44.746;19.678;2022-12-07T02:28:20;114.05;;;31.77;;
42978;SDS011;28616;44.746;19.678;2022-12-07T02:30:57;126.32;;;35.13;;
42978;SDS011;28616;44.746;19.678;2022-12-07T02:33:31;127.88;;;35.13;;
42978;SDS011;28616;44.746;19.678;2022-12-07T02:36:04;127.10;;;36.25;;
42978;SDS011;28616;44.746;19.678;2022-12-07T02:41:05;146.77;;;36.05;;
42978;SDS011;28616;44.746;19.678;2022-12-07T02:43:53;135.02;;;38.88;;
42978;SDS011;28616;44.746;19.678;2022-12-07T02:46:23;138.65;;;37.88;;
42978;SDS011;28616;44.746;19.678;2022-12-07T02:49:09;135.48;;;35.00;;
42978;SDS011;28616;44.746;19.678;2022-12-07T02:51:39;144.70;;;36.50;;
42978;SDS011;28616;44.746;19.678;2022-12-07T02:54:14;150.02;;;39.42;;
42978;SDS011;28616;44.746;19.678;2022-12-07T03:10:02;196.73;;;50.70;;
42978;SDS011;28616;44.746;19.678;2022-12-07T03:12:45;174.57;;;48.65;;
42978;SDS011;28616;44.746;19.678;2022-12-07T03:18:16;143.80;;;38.67;;
42978;SDS011;28616;44.746;19.678;2022-12-07T03:20:47;136.50;;;38.15;;
42978;SDS011;28616;44.746;19.678;2022-12-07T03:23:16;129.77;;;37.17;;
42978;SDS011;28616;44.746;19.678;2022-12-07T03:25:47;128.32;;;34.42;;
42978;SDS011;28616;44.746;19.678;2022-12-07T03:28:18;118.55;;;33.88;;
42978;SDS011;28616;44.746;19.678;2022-12-07T03:30:55;121.50;;;32.00;;
42978;SDS011;28616;44.746;19.678;2022-12-07T03:33:44;103.05;;;29.77;;
42978;SDS011;28616;44.746;19.678;2022-12-07T03:36:50;129.20;;;33.38;;
42978;SDS011;28616;44.746;19.678;2022-12-07T03:39:25;110.40;;;32.05;;
42978;SDS011;28616;44.746;19.678;2022-12-07T03:42:01;98.22;;;30.58;;
42978;SDS011;28616;44.746;19.678;2022-12-07T03:44:30;103.88;;;30.25;;
42978;SDS011;28616;44.746;19.678;2022-12-07T03:47:01;117.93;;;30.58;;
42978;SDS011;28616;44.746;19.678;2022-12-07T03:49:40;112.28;;;29.98;;
42978;SDS011;28616;44.746;19.678;2022-12-07T03:52:39;92.97;;;28.33;;
42978;SDS011;28616;44.746;19.678;2022-12-07T03:55:17;93.40;;;29.45;;
42978;SDS011;28616;44.746;19.678;2022-12-07T03:57:44;96.25;;;29.55;;
42978;SDS011;28616;44.746;19.678;2022-12-07T04:00:14;96.57;;;31.25;;
42978;SDS011;28616;44.746;19.678;2022-12-07T04:02:40;103.20;;;30.40;;
42978;SDS011;28616;44.746;19.678;2022-12-07T04:05:07;97.82;;;31.02;;
42978;SDS011;28616;44.746;19.678;2022-12-07T04:07:33;95.93;;;29.88;;
42978;SDS011;28616;44.746;19.678;2022-12-07T04:09:59;103.75;;;30.45;;
42978;SDS011;28616;44.746;19.678;2022-12-07T04:12:24;103.68;;;32.05;;
42978;SDS011;28616;44.746;19.678;2022-12-07T04:14:50;99.07;;;30.95;;
42978;SDS011;28616;44.746;19.678;2022-12-07T04:17:16;109.40;;;33.58;;
42978;SDS011;28616;44.746;19.678;2022-12-07T04:19:42;102.72;;;31.85;;
42978;SDS011;28616;44.746;19.678;2022-12-07T04:22:08;107.10;;;33.85;;
42978;SDS011;28616;44.746;19.678;2022-12-07T04:24:34;109.50;;;37.92;;
42978;SDS011;28616;44.746;19.678;2022-12-07T04:27:00;115.00;;;38.38;;
42978;SDS011;28616;44.746;19.678;2022-12-07T04:29:26;132.35;;;43.35;;
42978;SDS011;28616;44.746;19.678;2022-12-07T04:31:52;114.20;;;37.28;;
42978;SDS011;28616;44.746;19.678;2022-12-07T04:34:18;122.28;;;40.05;;
42978;SDS011;28616;44.746;19.678;2022-12-07T04:36:44;135.07;;;46.60;;
42978;SDS011;28616;44.746;19.678;2022-12-07T04:39:22;130.77;;;41.45;;
42978;SDS011;28616;44.746;19.678;2022-12-07T04:41:49;112.78;;;39.17;;
42978;SDS011;28616;44.746;19.678;2022-12-07T04:44:15;107.85;;;33.47;;
42978;SDS011;28616;44.746;19.678;2022-12-07T04:46:42;107.70;;;33.40;;
42978;SDS011;28616;44.746;19.678;2022-12-07T04:49:09;114.82;;;35.67;;
42978;SDS011;28616;44.746;19.678;2022-12-07T04:51:35;113.32;;;37.22;;
42978;SDS011;28616;44.746;19.678;2022-12-07T04:54:01;115.25;;;37.05;;
42978;SDS011;28616;44.746;19.678;2022-12-07T04:56:27;118.68;;;37.17;;
42978;SDS011;28616;44.746;19.678;2022-12-07T04:58:53;110.70;;;35.28;;
42978;SDS011;28616;44.746;19.678;2022-12-07T05:01:19;98.97;;;34.58;;
42978;SDS011;28616;44.746;19.678;2022-12-07T05:03:46;110.85;;;34.85;;
42978;SDS011;28616;44.746;19.678;2022-12-07T05:06:12;110.38;;;37.38;;
42978;SDS011;28616;44.746;19.678;2022-12-07T05:08:39;103.80;;;36.58;;
42978;SDS011;28616;44.746;19.678;2022-12-07T05:11:05;100.20;;;35.35;;
42978;SDS011;28616;44.746;19.678;2022-12-07T05:13:32;98.18;;;34.88;;
42978;SDS011;28616;44.746;19.678;2022-12-07T05:15:58;94.57;;;34.00;;
42978;SDS011;28616;44.746;19.678;2022-12-07T05:18:24;88.32;;;32.50;;
42978;SDS011;28616;44.746;19.678;2022-12-07T05:20:50;102.63;;;35.50;;
42978;SDS011;28616;44.746;19.678;2022-12-07T05:23:17;101.10;;;35.42;;
42978;SDS011;28616;44.746;19.678;2022-12-07T05:25:43;134.30;;;49.10;;
42978;SDS011;28616;44.746;19.678;2022-12-07T05:28:09;123.72;;;44.53;;
42978;SDS011;28616;44.746;19.678;2022-12-07T05:30:35;115.93;;;44.47;;
42978;SDS011;28616;44.746;19.678;2022-12-07T05:33:01;102.88;;;39.15;;
42978;SDS011;28616;44.746;19.678;2022-12-07T05:35:28;137.18;;;49.45;;
42978;SDS011;28616;44.746;19.678;2022-12-07T05:37:54;129.75;;;49.92;;
42978;SDS011;28616;44.746;19.678;2022-12-07T05:40:20;132.65;;;46.08;;
42978;SDS011;28616;44.746;19.678;2022-12-07T05:42:46;132.10;;;46.17;;
42978;SDS011;28616;44.746;19.678;2022-12-07T05:45:12;111.82;;;41.05;;
42978;SDS011;28616;44.746;19.678;2022-12-07T05:47:38;120.70;;;47.75;;
42978;SDS011;28616;44.746;19.678;2022-12-07T05:50:04;109.07;;;46.88;;
42978;SDS011;28616;44.746;19.678;2022-12-07T05:52:30;107.00;;;43.38;;
42978;SDS011;28616;44.746;19.678;2022-12-07T05:54:56;96.68;;;42.28;;
42978;SDS011;28616;44.746;19.678;2022-12-07T05:57:22;96.65;;;37.88;;
42978;SDS011;28616;44.746;19.678;2022-12-07T05:59:48;88.80;;;35.05;;
42978;SDS011;28616;44.746;19.678;2022-12-07T06:02:14;63.85;;;27.25;;
42978;SDS011;28616;44.746;19.678;2022-12-07T06:04:41;72.07;;;27.58;;
42978;SDS011;28616;44.746;19.678;2022-12-07T06:07:09;66.43;;;28.65;;
42978;SDS011;28616;44.746;19.678;2022-12-07T06:09:36;67.90;;;29.33;;
42978;SDS011;28616;44.746;19.678;2022-12-07T06:12:03;62.63;;;28.70;;
42978;SDS011;28616;44.746;19.678;2022-12-07T06:14:47;68.07;;;29.45;;
42978;SDS011;28616;44.746;19.678;2022-12-07T06:17:13;69.68;;;29.10;;
42978;SDS011;28616;44.746;19.678;2022-12-07T06:19:40;55.42;;;25.55;;
42978;SDS011;28616;44.746;19.678;2022-12-07T06:22:06;69.15;;;26.52;;
42978;SDS011;28616;44.746;19.678;2022-12-07T06:24:34;56.05;;;24.63;;
42978;SDS011;28616;44.746;19.678;2022-12-07T06:27:00;68.53;;;26.20;;
42978;SDS011;28616;44.746;19.678;2022-12-07T06:29:26;56.85;;;23.92;;
42978;SDS011;28616;44.746;19.678;2022-12-07T06:31:52;57.50;;;23.15;;
42978;SDS011;28616;44.746;19.678;2022-12-07T06:34:19;59.63;;;22.65;;
42978;SDS011;28616;44.746;19.678;2022-12-07T06:36:47;49.13;;;20.88;;
42978;SDS011;28616;44.746;19.678;2022-12-07T06:39:17;59.63;;;26.00;;
42978;SDS011;28616;44.746;19.678;2022-12-07T06:41:43;63.28;;;26.70;;
42978;SDS011;28616;44.746;19.678;2022-12-07T06:44:09;88.25;;;33.35;;
42978;SDS011;28616;44.746;19.678;2022-12-07T06:46:35;127.78;;;41.97;;
42978;SDS011;28616;44.746;19.678;2022-12-07T06:49:01;100.28;;;38.80;;
42978;SDS011;28616;44.746;19.678;2022-12-07T06:51:27;92.18;;;36.40;;
42978;SDS011;28616;44.746;19.678;2022-12-07T06:53:53;83.00;;;35.65;;
42978;SDS011;28616;44.746;19.678;2022-12-07T06:56:18;76.13;;;32.95;;
42978;SDS011;28616;44.746;19.678;2022-12-07T06:58:44;65.03;;;28.85;;
42978;SDS011;28616;44.746;19.678;2022-12-07T07:01:11;68.32;;;27.30;;
42978;SDS011;28616;44.746;19.678;2022-12-07T07:03:41;55.38;;;26.23;;
42978;SDS011;28616;44.746;19.678;2022-12-07T07:06:07;78.72;;;38.03;;
42978;SDS011;28616;44.746;19.678;2022-12-07T07:08:34;101.72;;;46.97;;
42978;SDS011;28616;44.746;19.678;2022-12-07T07:11:01;278.88;;;153.35;;
42978;SDS011;28616;44.746;19.678;2022-12-07T07:13:27;172.75;;;83.20;;
42978;SDS011;28616;44.746;19.678;2022-12-07T07:15:53;217.23;;;112.93;;
42978;SDS011;28616;44.746;19.678;2022-12-07T07:18:19;100.70;;;45.83;;
42978;SDS011;28616;44.746;19.678;2022-12-07T07:20:45;79.13;;;37.63;;
42978;SDS011;28616;44.746;19.678;2022-12-07T07:23:11;139.80;;;65.95;;
42978;SDS011;28616;44.746;19.678;2022-12-07T07:25:37;102.18;;;45.67;;
42978;SDS011;28616;44.746;19.678;2022-12-07T07:28:03;101.97;;;46.33;;
42978;SDS011;28616;44.746;19.678;2022-12-07T07:30:29;88.15;;;39.92;;
42978;SDS011;28616;44.746;19.678;2022-12-07T07:32:59;67.85;;;31.80;;
42978;SDS011;28616;44.746;19.678;2022-12-07T07:35:26;85.57;;;39.70;;
42978;SDS011;28616;44.746;19.678;2022-12-07T07:37:52;98.18;;;43.58;;
42978;SDS011;28616;44.746;19.678;2022-12-07T07:40:19;215.73;;;102.47;;
42978;SDS011;28616;44.746;19.678;2022-12-07T07:42:47;328.17;;;144.73;;
42978;SDS011;28616;44.746;19.678;2022-12-07T07:45:13;421.50;;;182.52;;
42978;SDS011;28616;44.746;19.678;2022-12-07T07:47:39;205.30;;;82.93;;
42978;SDS011;28616;44.746;19.678;2022-12-07T07:50:05;109.28;;;58.13;;
42978;SDS011;28616;44.746;19.678;2022-12-07T07:52:31;106.13;;;52.55;;
42978;SDS011;28616;44.746;19.678;2022-12-07T07:54:57;118.80;;;60.35;;
42978;SDS011;28616;44.746;19.678;2022-12-07T07:57:23;129.23;;;62.85;;
42978;SDS011;28616;44.746;19.678;2022-12-07T07:59:49;189.32;;;86.30;;
42978;SDS011;28616;44.746;19.678;2022-12-07T08:02:16;197.95;;;90.57;;
42978;SDS011;28616;44.746;19.678;2022-12-07T08:04:43;224.45;;;128.10;;
42978;SDS011;28616;44.746;19.678;2022-12-07T08:07:09;147.25;;;81.18;;
42978;SDS011;28616;44.746;19.678;2022-12-07T08:09:35;209.13;;;109.50;;
42978;SDS011;28616;44.746;19.678;2022-12-07T08:12:01;183.95;;;99.32;;
42978;SDS011;28616;44.746;19.678;2022-12-07T08:14:27;133.57;;;73.35;;
42978;SDS011;28616;44.746;19.678;2022-12-07T08:16:53;183.70;;;104.78;;
42978;SDS011;28616;44.746;19.678;2022-12-07T08:19:19;137.70;;;76.00;;
42978;SDS011;28616;44.746;19.678;2022-12-07T08:21:45;124.28;;;67.70;;
42978;SDS011;28616;44.746;19.678;2022-12-07T08:24:11;137.50;;;76.45;;
42978;SDS011;28616;44.746;19.678;2022-12-07T08:26:37;272.08;;;145.13;;
42978;SDS011;28616;44.746;19.678;2022-12-07T08:29:03;140.15;;;70.75;;
42978;SDS011;28616;44.746;19.678;2022-12-07T08:31:29;137.82;;;68.88;;
42978;SDS011;28616;44.746;19.678;2022-12-07T08:33:55;185.30;;;100.72;;
42978;SDS011;28616;44.746;19.678;2022-12-07T08:36:21;145.02;;;74.20;;
42978;SDS011;28616;44.746;19.678;2022-12-07T08:38:48;258.88;;;116.45;;
42978;SDS011;28616;44.746;19.678;2022-12-07T08:41:14;289.25;;;148.18;;
42978;SDS011;28616;44.746;19.678;2022-12-07T08:43:40;122.40;;;60.70;;
42978;SDS011;28616;44.746;19.678;2022-12-07T08:46:10;112.32;;;58.22;;
42978;SDS011;28616;44.746;19.678;2022-12-07T08:48:48;149.82;;;84.90;;
42978;SDS011;28616;44.746;19.678;2022-12-07T08:51:20;298.60;;;191.88;;
42978;SDS011;28616;44.746;19.678;2022-12-07T08:53:47;75.45;;;45.42;;
42978;SDS011;28616;44.746;19.678;2022-12-07T08:56:15;85.57;;;47.15;;
42978;SDS011;28616;44.746;19.678;2022-12-07T08:58:41;105.55;;;53.88;;
42978;SDS011;28616;44.746;19.678;2022-12-07T09:01:07;103.30;;;55.80;;
42978;SDS011;28616;44.746;19.678;2022-12-07T09:03:33;128.82;;;70.03;;
42978;SDS011;28616;44.746;19.678;2022-12-07T09:05:59;115.88;;;61.35;;
42978;SDS011;28616;44.746;19.678;2022-12-07T09:08:26;132.70;;;75.60;;
42978;SDS011;28616;44.746;19.678;2022-12-07T09:10:59;293.38;;;165.27;;
42978;SDS011;28616;44.746;19.678;2022-12-07T09:13:25;125.72;;;67.45;;
42978;SDS011;28616;44.746;19.678;2022-12-07T09:15:51;144.68;;;77.55;;
42978;SDS011;28616;44.746;19.678;2022-12-07T09:18:17;127.82;;;73.38;;
42978;SDS011;28616;44.746;19.678;2022-12-07T09:20:43;107.35;;;54.85;;
42978;SDS011;28616;44.746;19.678;2022-12-07T09:23:08;97.22;;;49.83;;
42978;SDS011;28616;44.746;19.678;2022-12-07T09:25:34;151.50;;;80.05;;
42978;SDS011;28616;44.746;19.678;2022-12-07T09:28:00;187.90;;;98.63;;
42978;SDS011;28616;44.746;19.678;2022-12-07T09:30:26;259.25;;;149.50;;
42978;SDS011;28616;44.746;19.678;2022-12-07T09:32:53;171.60;;;100.13;;
42978;SDS011;28616;44.746;19.678;2022-12-07T09:35:20;201.80;;;115.78;;
42978;SDS011;28616;44.746;19.678;2022-12-07T09:37:46;161.93;;;86.80;;
42978;SDS011;28616;44.746;19.678;2022-12-07T09:40:12;223.18;;;119.72;;
42978;SDS011;28616;44.746;19.678;2022-12-07T09:42:41;268.90;;;122.95;;
42978;SDS011;28616;44.746;19.678;2022-12-07T09:45:14;142.95;;;77.70;;
42978;SDS011;28616;44.746;19.678;2022-12-07T09:47:43;135.45;;;73.45;;
42978;SDS011;28616;44.746;19.678;2022-12-07T09:50:14;101.47;;;56.33;;
42978;SDS011;28616;44.746;19.678;2022-12-07T09:55:12;212.93;;;114.25;;
42978;SDS011;28616;44.746;19.678;2022-12-07T09:57:40;189.32;;;99.95;;
42978;SDS011;28616;44.746;19.678;2022-12-07T10:00:17;199.25;;;110.55;;
42978;SDS011;28616;44.746;19.678;2022-12-07T10:03:05;299.73;;;141.18;;
42978;SDS011;28616;44.746;19.678;2022-12-07T10:05:37;242.27;;;126.05;;
42978;SDS011;28616;44.746;19.678;2022-12-07T10:08:10;280.17;;;157.18;;
42978;SDS011;28616;44.746;19.678;2022-12-07T10:10:37;267.20;;;161.05;;
42978;SDS011;28616;44.746;19.678;2022-12-07T10:13:09;281.60;;;156.68;;
42978;SDS011;28616;44.746;19.678;2022-12-07T10:21:00;131.23;;;81.55;;
42978;SDS011;28616;44.746;19.678;2022-12-07T10:23:27;198.30;;;105.13;;
42978;SDS011;28616;44.746;19.678;2022-12-07T10:25:52;199.93;;;119.35;;
42978;SDS011;28616;44.746;19.678;2022-12-07T10:28:20;289.10;;;179.20;;
42978;SDS011;28616;44.746;19.678;2022-12-07T10:33:37;178.32;;;100.65;;
42978;SDS011;28616;44.746;19.678;2022-12-07T10:38:48;209.40;;;117.32;;
42978;SDS011;28616;44.746;19.678;2022-12-07T10:41:23;414.52;;;251.85;;
42978;SDS011;28616;44.746;19.678;2022-12-07T10:43:50;429.25;;;264.92;;
42978;SDS011;28616;44.746;19.678;2022-12-07T10:46:21;326.85;;;198.88;;
42978;SDS011;28616;44.746;19.678;2022-12-07T10:51:43;451.70;;;236.18;;
42978;SDS011;28616;44.746;19.678;2022-12-07T10:54:30;265.00;;;139.15;;
42978;SDS011;28616;44.746;19.678;2022-12-07T11:00:24;758.30;;;487.27;;
42978;SDS011;28616;44.746;19.678;2022-12-07T11:16:49;179.93;;;111.32;;
42978;SDS011;28616;44.746;19.678;2022-12-07T11:37:49;114.63;;;64.88;;
42978;SDS011;28616;44.746;19.678;2022-12-07T11:40:35;82.03;;;49.00;;
42978;SDS011;28616;44.746;19.678;2022-12-07T11:46:05;89.38;;;53.83;;
42978;SDS011;28616;44.746;19.678;2022-12-07T11:48:40;151.75;;;89.78;;
42978;SDS011;28616;44.746;19.678;2022-12-07T11:51:11;197.38;;;114.03;;
42978;SDS011;28616;44.746;19.678;2022-12-07T11:56:10;153.73;;;80.15;;
42978;SDS011;28616;44.746;19.678;2022-12-07T11:58:44;107.68;;;61.60;;
42978;SDS011;28616;44.746;19.678;2022-12-07T12:22:12;229.20;;;99.32;;
42978;SDS011;28616;44.746;19.678;2022-12-07T12:24:45;257.85;;;119.40;;
42978;SDS011;28616;44.746;19.678;2022-12-07T12:27:23;204.10;;;93.28;;
42978;SDS011;28616;44.746;19.678;2022-12-07T12:29:59;92.93;;;52.20;;
42978;SDS011;28616;44.746;19.678;2022-12-07T12:42:49;298.67;;;154.98;;
42978;SDS011;28616;44.746;19.678;2022-12-07T12:47:56;69.25;;;40.03;;
42978;SDS011;28616;44.746;19.678;2022-12-07T12:50:30;75.50;;;46.42;;
42978;SDS011;28616;44.746;19.678;2022-12-07T12:53:05;144.30;;;79.45;;
42978;SDS011;28616;44.746;19.678;2022-12-07T13:00:44;85.63;;;50.72;;
42978;SDS011;28616;44.746;19.678;2022-12-07T13:03:22;58.88;;;38.17;;
42978;SDS011;28616;44.746;19.678;2022-12-07T13:09:00;97.35;;;53.45;;
42978;SDS011;28616;44.746;19.678;2022-12-07T13:11:33;70.22;;;39.78;;
42978;SDS011;28616;44.746;19.678;2022-12-07T13:17:11;73.80;;;41.10;;
42978;SDS011;28616;44.746;19.678;2022-12-07T13:20:04;136.85;;;71.95;;
42978;SDS011;28616;44.746;19.678;2022-12-07T13:27:59;56.88;;;30.77;;
42978;SDS011;28616;44.746;19.678;2022-12-07T13:30:32;52.67;;;27.35;;
42978;SDS011;28616;44.746;19.678;2022-12-07T13:33:09;56.33;;;30.73;;
42978;SDS011;28616;44.746;19.678;2022-12-07T13:35:36;63.17;;;33.92;;
42978;SDS011;28616;44.746;19.678;2022-12-07T13:38:15;57.90;;;30.90;;
42978;SDS011;28616;44.746;19.678;2022-12-07T13:41:00;69.32;;;36.03;;
42978;SDS011;28616;44.746;19.678;2022-12-07T13:43:46;64.20;;;32.30;;
42978;SDS011;28616;44.746;19.678;2022-12-07T13:46:17;53.90;;;28.98;;
42978;SDS011;28616;44.746;19.678;2022-12-07T13:48:49;57.60;;;29.65;;
42978;SDS011;28616;44.746;19.678;2022-12-07T13:51:25;83.95;;;42.45;;
42978;SDS011;28616;44.746;19.678;2022-12-07T13:53:55;68.25;;;34.67;;
42978;SDS011;28616;44.746;19.678;2022-12-07T13:56:27;80.68;;;38.70;;
42978;SDS011;28616;44.746;19.678;2022-12-07T13:58:58;85.10;;;41.47;;
42978;SDS011;28616;44.746;19.678;2022-12-07T14:01:24;122.65;;;49.47;;
42978;SDS011;28616;44.746;19.678;2022-12-07T14:03:50;87.00;;;43.70;;
42978;SDS011;28616;44.746;19.678;2022-12-07T14:06:17;92.78;;;44.17;;
42978;SDS011;28616;44.746;19.678;2022-12-07T14:08:50;109.30;;;48.83;;
42978;SDS011;28616;44.746;19.678;2022-12-07T14:11:30;85.68;;;43.72;;
42978;SDS011;28616;44.746;19.678;2022-12-07T14:14:00;68.30;;;36.17;;
42978;SDS011;28616;44.746;19.678;2022-12-07T14:16:34;56.08;;;29.70;;
42978;SDS011;28616;44.746;19.678;2022-12-07T14:19:06;61.97;;;32.08;;
42978;SDS011;28616;44.746;19.678;2022-12-07T14:22:07;208.60;;;86.88;;
42978;SDS011;28616;44.746;19.678;2022-12-07T14:24:42;173.85;;;73.00;;
42978;SDS011;28616;44.746;19.678;2022-12-07T14:27:21;460.02;;;177.57;;
42978;SDS011;28616;44.746;19.678;2022-12-07T14:29:50;489.83;;;186.40;;
42978;SDS011;28616;44.746;19.678;2022-12-07T14:32:21;265.13;;;102.13;;
42978;SDS011;28616;44.746;19.678;2022-12-07T14:34:58;143.57;;;62.30;;
42978;SDS011;28616;44.746;19.678;2022-12-07T14:37:29;226.50;;;95.05;;
42978;SDS011;28616;44.746;19.678;2022-12-07T14:39:55;90.80;;;42.28;;
42978;SDS011;28616;44.746;19.678;2022-12-07T14:42:22;81.65;;;42.22;;
42978;SDS011;28616;44.746;19.678;2022-12-07T14:44:52;213.75;;;88.93;;
42978;SDS011;28616;44.746;19.678;2022-12-07T14:47:18;730.72;;;365.15;;
42978;SDS011;28616;44.746;19.678;2022-12-07T14:49:43;256.08;;;112.25;;
42978;SDS011;28616;44.746;19.678;2022-12-07T14:52:12;149.23;;;76.88;;
42978;SDS011;28616;44.746;19.678;2022-12-07T14:54:48;199.90;;;109.20;;
42978;SDS011;28616;44.746;19.678;2022-12-07T14:57:13;377.98;;;219.75;;
42978;SDS011;28616;44.746;19.678;2022-12-07T14:59:39;332.52;;;184.57;;
42978;SDS011;28616;44.746;19.678;2022-12-07T15:02:06;215.90;;;106.40;;
42978;SDS011;28616;44.746;19.678;2022-12-07T15:04:34;462.17;;;201.68;;
42978;SDS011;28616;44.746;19.678;2022-12-07T15:07:03;635.22;;;301.58;;
42978;SDS011;28616;44.746;19.678;2022-12-07T15:09:30;482.58;;;233.45;;
42978;SDS011;28616;44.746;19.678;2022-12-07T15:11:56;285.95;;;138.20;;
42978;SDS011;28616;44.746;19.678;2022-12-07T15:14:22;342.27;;;177.52;;
42978;SDS011;28616;44.746;19.678;2022-12-07T15:16:48;214.18;;;109.50;;
42978;SDS011;28616;44.746;19.678;2022-12-07T15:19:18;313.95;;;182.63;;
42978;SDS011;28616;44.746;19.678;2022-12-07T15:21:50;289.67;;;175.05;;
42978;SDS011;28616;44.746;19.678;2022-12-07T15:24:17;241.73;;;139.70;;
42978;SDS011;28616;44.746;19.678;2022-12-07T15:26:44;200.98;;;100.63;;
42978;SDS011;28616;44.746;19.678;2022-12-07T15:29:10;163.52;;;79.55;;
42978;SDS011;28616;44.746;19.678;2022-12-07T15:31:36;144.27;;;70.25;;
42978;SDS011;28616;44.746;19.678;2022-12-07T15:34:03;167.98;;;86.30;;
42978;SDS011;28616;44.746;19.678;2022-12-07T15:36:30;163.10;;;85.07;;
42978;SDS011;28616;44.746;19.678;2022-12-07T15:38:57;199.05;;;104.25;;
42978;SDS011;28616;44.746;19.678;2022-12-07T15:41:23;194.20;;;93.00;;
42978;SDS011;28616;44.746;19.678;2022-12-07T15:43:49;161.35;;;81.32;;
42978;SDS011;28616;44.746;19.678;2022-12-07T15:46:38;180.38;;;88.95;;
42978;SDS011;28616;44.746;19.678;2022-12-07T15:49:12;207.50;;;109.23;;
42978;SDS011;28616;44.746;19.678;2022-12-07T15:51:40;235.95;;;125.32;;
42978;SDS011;28616;44.746;19.678;2022-12-07T15:54:06;176.38;;;87.40;;
42978;SDS011;28616;44.746;19.678;2022-12-07T15:56:36;247.25;;;129.07;;
42978;SDS011;28616;44.746;19.678;2022-12-07T15:59:02;221.82;;;112.68;;
42978;SDS011;28616;44.746;19.678;2022-12-07T16:01:28;224.75;;;117.97;;
42978;SDS011;28616;44.746;19.678;2022-12-07T16:03:53;252.18;;;133.25;;
42978;SDS011;28616;44.746;19.678;2022-12-07T16:06:22;253.25;;;135.57;;
42978;SDS011;28616;44.746;19.678;2022-12-07T16:08:47;318.83;;;177.55;;
42978;SDS011;28616;44.746;19.678;2022-12-07T16:11:13;291.85;;;157.05;;
42978;SDS011;28616;44.746;19.678;2022-12-07T16:13:39;351.23;;;183.85;;
42978;SDS011;28616;44.746;19.678;2022-12-07T16:16:06;313.42;;;177.23;;
42978;SDS011;28616;44.746;19.678;2022-12-07T16:18:34;259.20;;;142.23;;
42978;SDS011;28616;44.746;19.678;2022-12-07T16:21:00;264.33;;;141.50;;
42978;SDS011;28616;44.746;19.678;2022-12-07T16:23:26;276.25;;;146.77;;
42978;SDS011;28616;44.746;19.678;2022-12-07T16:25:52;243.23;;;131.27;;
42978;SDS011;28616;44.746;19.678;2022-12-07T16:28:18;252.05;;;138.52;;